tititudorancea.com
Station Historical Data
Daily Summary for December 6, 2018 Units:  English    Metric   Both
« Previous Day
Next Day »
Daily Weekly Monthly Yearly Custom
  High: Low: Average:
Temperature: TemperatureF °F 50 °F 76.8 °F
Dew Point: DewpointF °F 37.1 °F 46.3 °F
Humidity: Humidity % 13 % 43 %
Wind Speed: WindSpeedMPH mph 0 mph 6.4 mph
Wind Gust: WindSpeedGustMPH mph - -
Wind:- - SW
Pressure: PressureIn in 29.79 in -
Precipitation: 0 in    
Historical Graphs
 
 
Ararat weather Find more about Weather in Ararat, AU


 



 


Tabular Data for December 6, 2018
Time Temperature Dew Point Pressure Wind Wind Speed Wind Gust Humidity Rainfall Rate (Hourly)
TemperatureF °F DewpointF °F PressureIn in Calm     Humidity % HourlyPrecipIn in
00:04 62.4 °F 51.7 °F 29.97 in Calm     68 % 0 in
00:09 62.1 °F 51.4 °F 29.97 in Calm     68 % 0 in
00:14 61.6 °F 51.3 °F 29.97 in Calm     69 % 0 in
00:19 61.2 °F 51.3 °F 29.97 in Calm     70 % 0 in
00:24 60.8 °F 51.3 °F 29.97 in Calm     71 % 0 in
00:29 60.6 °F 51.1 °F 29.97 in South 2.3 mph 1.2 mph 71 % 0 in
00:34 60.6 °F 51.5 °F 29.97 in Calm     72 % 0 in
00:39 60.5 °F 51.4 °F 29.96 in South 1 mph 0.1 mph 72 % 0 in
00:44 60.4 °F 51.3 °F 29.97 in Calm     72 % 0 in
00:49 60.2 °F 51.5 °F 29.97 in South 2.3 mph 1.4 mph 73 % 0 in
00:54 60.1 °F 51.4 °F 29.97 in South 2.3 mph 0.5 mph 73 % 0 in
00:59 60 °F 50.9 °F 29.96 in Calm     72 % 0 in
01:04 59.7 °F 50.7 °F 29.96 in Calm     72 % 0 in
01:09 59.4 °F 50.4 °F 29.96 in Calm     72 % 0 in
01:14 59.2 °F 50.5 °F 29.96 in Calm     73 % 0 in
01:19 58.9 °F 50.3 °F 29.96 in Calm     73 % 0 in
01:24 58.7 °F 50.4 °F 29.96 in Calm     74 % 0 in
01:29 58.5 °F 50.2 °F 29.96 in Calm     74 % 0 in
01:34 58.1 °F 49.9 °F 29.96 in Calm     74 % 0 in
01:39 57.7 °F 49.5 °F 29.96 in Calm     74 % 0 in
01:44 57.4 °F 49.2 °F 29.96 in Calm     74 % 0 in
01:49 57 °F 49.2 °F 29.96 in Calm     75 % 0 in
01:54 56.6 °F 49.1 °F 29.96 in Calm     76 % 0 in
01:59 56.3 °F 49.2 °F 29.95 in Calm     77 % 0 in
02:04 55.9 °F 48.8 °F 29.96 in Calm     77 % 0 in
02:09 55.6 °F 48.8 °F 29.95 in Calm     78 % 0 in
02:14 55.2 °F 48.8 °F 29.95 in Calm     79 % 0 in
02:19 54.9 °F 48.8 °F 29.95 in Calm     80 % 0 in
02:24 54.7 °F 49 °F 29.95 in Calm     81 % 0 in
02:29 54.5 °F 48.8 °F 29.95 in Calm     81 % 0 in
02:34 54.3 °F 48.9 °F 29.95 in Calm     82 % 0 in
02:39 54.1 °F 49.1 °F 29.94 in Calm     83 % 0 in
02:44 54.1 °F 49.1 °F 29.94 in Calm     83 % 0 in
02:49 53.9 °F 48.9 °F 29.94 in Calm     83 % 0 in
02:54 53.6 °F 48.6 °F 29.94 in Calm     83 % 0 in
02:59 53.4 °F 48.7 °F 29.94 in Calm     84 % 0 in
03:04 53.2 °F 48.5 °F 29.94 in Calm     84 % 0 in
03:09 53.1 °F 48.7 °F 29.94 in Calm     85 % 0 in
03:14 53.1 °F 49 °F 29.94 in Calm     86 % 0 in
03:19 52.9 °F 48.8 °F 29.94 in Calm     86 % 0 in
03:24 52.8 °F 48.7 °F 29.94 in Calm     86 % 0 in
03:29 52.7 °F 48.9 °F 29.94 in Calm     87 % 0 in
03:34 52.6 °F 48.8 °F 29.94 in Calm     87 % 0 in
03:39 52.6 °F 48.8 °F 29.94 in Calm     87 % 0 in
03:44 52.6 °F 48.8 °F 29.94 in Calm     87 % 0 in
03:49 52.4 °F 48.6 °F 29.94 in Calm     87 % 0 in
03:54 52.3 °F 48.9 °F 29.95 in Calm     88 % 0 in
03:59 52.5 °F 49.4 °F 29.94 in Calm     89 % 0 in
04:04 52.5 °F 49 °F 29.94 in Calm     88 % 0 in
04:09 52.3 °F 48.9 °F 29.94 in Calm     88 % 0 in
04:14 52.2 °F 48.8 °F 29.94 in Calm     88 % 0 in
04:19 51.9 °F 48.2 °F 29.94 in Calm     87 % 0 in
04:24 51.7 °F 48 °F 29.94 in Calm     87 % 0 in
04:29 51.6 °F 48.2 °F 29.94 in Calm     88 % 0 in
04:34 51.4 °F 48 °F 29.94 in Calm     88 % 0 in
04:39 51.2 °F 47.5 °F 29.95 in Calm     87 % 0 in
04:44 51.1 °F 47.7 °F 29.95 in Calm     88 % 0 in
04:49 51.1 °F 47.7 °F 29.95 in Calm     88 % 0 in
04:54 51 °F 47.6 °F 29.95 in Calm     88 % 0 in
04:59 51 °F 47.9 °F 29.94 in Calm     89 % 0 in
05:04 50.8 °F 47.4 °F 29.95 in Calm     88 % 0 in
05:09 50.6 °F 47.2 °F 29.95 in Calm     88 % 0 in
05:14 50.4 °F 47 °F 29.95 in Calm     88 % 0 in
05:19 50.3 °F 47.2 °F 29.95 in Calm     89 % 0 in
05:24 50.2 °F 47.1 °F 29.95 in Calm     89 % 0 in
05:29 50.2 °F 47.1 °F 29.95 in Calm     89 % 0 in
05:34 50.1 °F 47 °F 29.95 in Calm     89 % 0 in
05:39 50 °F 46.9 °F 29.95 in Calm     89 % 0 in
05:44 50 °F 46.9 °F 29.95 in Calm     89 % 0 in
05:49 50.2 °F 47.4 °F 29.95 in Calm     90 % 0 in
05:54 50.5 °F 47.7 °F 29.95 in Calm     90 % 0 in
05:59 50.7 °F 47.9 °F 29.95 in Calm     90 % 0 in
06:04 50.9 °F 48.1 °F 29.95 in Calm     90 % 0 in
06:09 51.4 °F 48.6 °F 29.96 in Calm     90 % 0 in
06:14 51.9 °F 48.8 °F 29.96 in Calm     89 % 0 in
06:19 52.3 °F 48.9 °F 29.95 in Calm     88 % 0 in
06:24 52.7 °F 48.6 °F 29.96 in Calm     86 % 0 in
06:29 53.2 °F 49.1 °F 29.96 in Calm     86 % 0 in
06:34 53.8 °F 49.4 °F 29.96 in Calm     85 % 0 in
06:39 54.4 °F 49.7 °F 29.96 in South 2.3 mph 2.1 mph 84 % 0 in
06:44 55.2 °F 50.1 °F 29.96 in South 2.3 mph 2 mph 83 % 0 in
06:49 56.4 °F 50.6 °F 29.96 in South 2.3 mph 0.2 mph 81 % 0 in
06:54 57.8 °F 50.6 °F 29.96 in South 4.6 mph 4.2 mph 77 % 0 in
06:59 60.1 °F 50.3 °F 29.97 in South 4.6 mph 3.7 mph 70 % 0 in
07:04 62.6 °F 49.8 °F 29.97 in South 4.6 mph 2.3 mph 63 % 0 in
07:09 64.2 °F 49.6 °F 29.97 in South 4.6 mph 4.6 mph 59 % 0 in
07:14 65.2 °F 48.6 °F 29.97 in South 5 mph 4.9 mph 55 % 0 in
07:19 66 °F 48.4 °F 29.97 in South 4.6 mph 3.5 mph 53 % 0 in
07:24 66.9 °F 49.2 °F 29.97 in South 3.5 mph 2.2 mph 53 % 0 in
07:29 67.8 °F 50.5 °F 29.96 in South 2.3 mph 1.4 mph 54 % 0 in
07:34 68.6 °F 49.7 °F 29.97 in South 4.6 mph 4 mph 51 % 0 in
07:39 69.5 °F 48.9 °F 29.97 in South 4.6 mph 2.9 mph 48 % 0 in
07:44 70.3 °F 48.5 °F 29.97 in South 4.6 mph 2.5 mph 46 % 0 in
07:49 70.7 °F 48.9 °F 29.97 in South 4.6 mph 2 mph 46 % 0 in
07:54 71 °F 49.2 °F 29.96 in South 6 mph 2.2 mph 46 % 0 in
07:59 71.2 °F 49.4 °F 29.97 in South 4.6 mph 2.4 mph 46 % 0 in
08:04 71.8 °F 49.9 °F 29.97 in South 3.5 mph 2.8 mph 46 % 0 in
08:09 72.6 °F 50 °F 29.97 in South 3.5 mph 2.6 mph 45 % 0 in
08:14 73.4 °F 50.2 °F 29.97 in South 4.6 mph 3.3 mph 44 % 0 in
08:19 74.3 °F 50.4 °F 29.97 in South 7 mph 6.1 mph 43 % 0 in
08:24 75 °F 50.3 °F 29.97 in South 7 mph 5.9 mph 42 % 0 in
08:29 75.9 °F 50.5 °F 29.97 in East 5.8 mph 4.2 mph 41 % 0 in
08:34 76.7 °F 50.6 °F 29.97 in ENE 10.4 mph 5.3 mph 40 % 0 in
08:39 77.2 °F 51 °F 29.97 in ENE 4.6 mph 2.5 mph 40 % 0 in
08:44 77.9 °F 50.9 °F 29.97 in ENE 6 mph 4.6 mph 39 % 0 in
08:49 78.4 °F 50.7 °F 29.97 in ENE 8.1 mph 4.2 mph 38 % 0 in
08:54 78.8 °F 51 °F 29.97 in ENE 5.8 mph 5.3 mph 38 % 0 in
08:59 79.5 °F 51.7 °F 29.97 in NE 8 mph 5.9 mph 38 % 0 in
09:04 79.9 °F 51.3 °F 29.97 in NNE 15 mph 12.4 mph 37 % 0 in
09:09 79.8 °F 51.2 °F 29.96 in NNE 11.5 mph 6 mph 37 % 0 in
09:14 79.9 °F 51.3 °F 29.96 in North 13.8 mph 6.2 mph 37 % 0 in
09:19 80.3 °F 51.7 °F 29.96 in NNE 11.5 mph 7.7 mph 37 % 0 in
09:24 80.6 °F 51.2 °F 29.96 in NNE 13.8 mph 7.3 mph 36 % 0 in
09:29 81.2 °F 51.7 °F 29.96 in NNE 11.5 mph 8.5 mph 36 % 0 in
09:34 81.6 °F 51.3 °F 29.95 in NNE 10.4 mph 7.2 mph 35 % 0 in
09:39 82.2 °F 52.6 °F 29.95 in NNE 13 mph 7.1 mph 36 % 0 in
09:44 82.7 °F 51.5 °F 29.95 in North 16.1 mph 9.6 mph 34 % 0 in
09:49 82.9 °F 51.6 °F 29.95 in NNE 12.7 mph 6.4 mph 34 % 0 in
09:54 83.6 °F 52.3 °F 29.95 in North 11.5 mph 7.4 mph 34 % 0 in
09:59 84 °F 51.8 °F 29.95 in NNW 12 mph 9.7 mph 33 % 0 in
10:04 83.9 °F 52.5 °F 29.95 in NNW 9.2 mph 5.3 mph 34 % 0 in
10:09 84.7 °F 51.6 °F 29.95 in NNE 19 mph 12 mph 32 % 0 in
10:14 84.5 °F 51.4 °F 29.95 in NNE 15 mph 10.8 mph 32 % 0 in
10:19 84.5 °F 51.4 °F 29.95 in North 11.5 mph 9 mph 32 % 0 in
10:24 84.7 °F 51.6 °F 29.95 in North 16.1 mph 10.9 mph 32 % 0 in
10:29 85.2 °F 51.1 °F 29.95 in NE 16.1 mph 11.7 mph 31 % 0 in
10:34 85.2 °F 51.1 °F 29.95 in North 12.7 mph 9.8 mph 31 % 0 in
10:39 85.3 °F 51.2 °F 29.95 in North 13 mph 11.3 mph 31 % 0 in
10:44 85.5 °F 51.4 °F 29.95 in NNE 12.7 mph 7.4 mph 31 % 0 in
10:49 86 °F 51 °F 29.95 in NNE 17.3 mph 7.6 mph 30 % 0 in
10:54 86.3 °F 51.2 °F 29.95 in North 12 mph 7.4 mph 30 % 0 in
10:59 86.3 °F 51.2 °F 29.94 in NNW 13.8 mph 9.3 mph 30 % 0 in
11:04 86.4 °F 51.3 °F 29.94 in NNW 10.4 mph 8.1 mph 30 % 0 in
11:09 86.9 °F 50.8 °F 29.94 in NW 12.7 mph 8.6 mph 29 % 0 in
11:14 86.9 °F 51.7 °F 29.94 in North 15 mph 8.2 mph 30 % 0 in
11:19 87.1 °F 51.9 °F 29.94 in North 15 mph 10.4 mph 30 % 0 in
11:24 87.5 °F 51.3 °F 29.94 in North 11.5 mph 7.5 mph 29 % 0 in
11:29 87.8 °F 51.6 °F 29.94 in NNE 18.4 mph 6.9 mph 29 % 0 in
11:34 88.3 °F 50.1 °F 29.94 in North 12.7 mph 11.5 mph 27 % 0 in
11:39 88.1 °F 49.9 °F 29.93 in NNW 10.4 mph 7.4 mph 27 % 0 in
11:44 88.5 °F 50.3 °F 29.93 in NNE 16.1 mph 10.9 mph 27 % 0 in
11:49 88.7 °F 48.4 °F 29.93 in North 16.1 mph 9.5 mph 25 % 0 in
11:54 88.9 °F 49.6 °F 29.93 in NNE 10.4 mph 7.3 mph 26 % 0 in
11:59 89.1 °F 49.7 °F 29.93 in NNE 13.8 mph 8.7 mph 26 % 0 in
12:04 89.3 °F 48.9 °F 29.93 in North 11.5 mph 5.4 mph 25 % 0 in
12:09 90.1 °F 50.6 °F 29.93 in NNW 12.7 mph 6.8 mph 26 % 0 in
12:14 90.1 °F 50.6 °F 29.92 in NNE 15 mph 10.9 mph 26 % 0 in
12:19 89.7 °F 50.3 °F 29.92 in North 15 mph 10.9 mph 26 % 0 in
12:24 90.2 °F 49.6 °F 29.92 in NNW 9.2 mph 4.2 mph 25 % 0 in
12:29 90.9 °F 48 °F 29.92 in NW 18.4 mph 11.1 mph 23 % 0 in
12:34 89.9 °F 48.3 °F 29.91 in NW 12.7 mph 8.7 mph 24 % 0 in
12:39 90.3 °F 47.5 °F 29.92 in NNW 14 mph 8.8 mph 23 % 0 in
12:44 90.3 °F 47.5 °F 29.92 in NNW 15 mph 7.2 mph 23 % 0 in
12:49 90.4 °F 46.4 °F 29.91 in NNW 9.2 mph 7.8 mph 22 % 0 in
12:54 90.6 °F 46.5 °F 29.91 in NNE 10.4 mph 4.4 mph 22 % 0 in
12:59 91.3 °F 47.1 °F 29.90 in NNE 16.1 mph 11 mph 22 % 0 in
13:04 91.5 °F 47.3 °F 29.90 in NNE 13.8 mph 5.6 mph 22 % 0 in
13:09 91.3 °F 45.9 °F 29.90 in North 5.8 mph 4.3 mph 21 % 0 in
13:14 91.8 °F 46.3 °F 29.90 in NNW 18.4 mph 10.1 mph 21 % 0 in
13:19 92 °F 46.5 °F 29.89 in NNW 15 mph 4.6 mph 21 % 0 in
13:24 92.8 °F 47.1 °F 29.89 in North 5.8 mph 2.7 mph 21 % 0 in
13:29 93.3 °F 46.2 °F 29.89 in North 10 mph 7.3 mph 20 % 0 in
13:34 93.1 °F 46.1 °F 29.89 in NNE 11.5 mph 5 mph 20 % 0 in
13:39 93.3 °F 46.2 °F 29.89 in North 12 mph 10.8 mph 20 % 0 in
13:44 92.4 °F 44.2 °F 29.88 in North 16.1 mph 10 mph 19 % 0 in
13:49 92.6 °F 44.3 °F 29.88 in North 16.1 mph 12.3 mph 19 % 0 in
13:54 92.2 °F 45.3 °F 29.88 in NNW 10.4 mph 5.2 mph 20 % 0 in
13:59 92.7 °F 44.4 °F 29.88 in NNE 13.8 mph 10.9 mph 19 % 0 in
14:04 92.9 °F 45.9 °F 29.87 in North 14 mph 9.5 mph 20 % 0 in
14:09 93.3 °F 44.9 °F 29.87 in NW 11.5 mph 10.1 mph 19 % 0 in
14:14 93.3 °F 44.9 °F 29.87 in NNW 10.4 mph 7.4 mph 19 % 0 in
14:19 94.4 °F 44.4 °F 29.87 in NNE 16.1 mph 8.1 mph 18 % 0 in
14:24 94.4 °F 47.1 °F 29.86 in NNE 7 mph 5.9 mph 20 % 0 in
14:29 94.3 °F 44.3 °F 29.86 in North 13.8 mph 12 mph 18 % 0 in
14:34 94 °F 45.5 °F 29.86 in North 11.5 mph 4.8 mph 19 % 0 in
14:39 94.5 °F 45.9 °F 29.85 in North 17 mph 9.2 mph 19 % 0 in
14:44 94.4 °F 45.8 °F 29.85 in North 19.6 mph 9.8 mph 19 % 0 in
14:49 94.4 °F 45.8 °F 29.85 in North 13.8 mph 7 mph 19 % 0 in
14:54 94.6 °F 46 °F 29.84 in NNE 13.8 mph 8.1 mph 19 % 0 in
14:59 94.9 °F 44.8 °F 29.84 in NW 11.5 mph 4.6 mph 18 % 0 in
15:04 95.1 °F 43.4 °F 29.84 in North 15 mph 8.5 mph 17 % 0 in
15:09 95.2 °F 41.9 °F 29.84 in NNW 19 mph 15.3 mph 16 % 0 in
15:14 94.9 °F 43.3 °F 29.84 in North 17.3 mph 9.5 mph 17 % 0 in
15:19 95.4 °F 42.1 °F 29.84 in NNE 6 mph 5.3 mph 16 % 0 in
15:24 95.6 °F 43.8 °F 29.84 in NNW 10.4 mph 4.3 mph 17 % 0 in
15:29 96 °F 42.6 °F 29.84 in NNW 12.7 mph 8 mph 16 % 0 in
15:34 96 °F 42.6 °F 29.83 in NNW 11.5 mph 6.9 mph 16 % 0 in
15:39 95.5 °F 42.2 °F 29.83 in NW 17.3 mph 9.7 mph 16 % 0 in
15:44 95.3 °F 43.6 °F 29.83 in North 10.4 mph 5.2 mph 17 % 0 in
15:49 95.7 °F 43.9 °F 29.83 in North 11.5 mph 6.7 mph 17 % 0 in
15:54 95.6 °F 42.3 °F 29.82 in North 16.1 mph 8 mph 16 % 0 in
15:59 95.1 °F 43.4 °F 29.82 in NNW 11.5 mph 5.5 mph 17 % 0 in
16:04 95.6 °F 45.3 °F 29.82 in NNE 11 mph 6.5 mph 18 % 0 in
16:09 95.8 °F 40.7 °F 29.82 in NNW 10.4 mph 8.7 mph 15 % 0 in
16:14 95.6 °F 42.3 °F 29.82 in North 13.8 mph 8.3 mph 16 % 0 in
16:19 96.1 °F 41 °F 29.82 in NNE 13 mph 10.7 mph 15 % 0 in
16:24 96.1 °F 41 °F 29.81 in NNW 11.5 mph 5.6 mph 15 % 0 in
16:29 95.8 °F 40.7 °F 29.81 in North 19.6 mph 11.5 mph 15 % 0 in
16:34 95.6 °F 40.6 °F 29.81 in North 9.2 mph 5.3 mph 15 % 0 in
16:39 96.3 °F 41.1 °F 29.81 in NNW 12.7 mph 11.7 mph 15 % 0 in
16:44 96.6 °F 41.4 °F 29.81 in NNW 6.9 mph 3.8 mph 15 % 0 in
16:49 96.7 °F 41.4 °F 29.81 in North 15 mph 6.5 mph 15 % 0 in
16:54 96.2 °F 39.3 °F 29.81 in NW 19.6 mph 6 mph 14 % 0 in
16:59 95.4 °F 38.6 °F 29.81 in NNW 13 mph 9.5 mph 14 % 0 in
17:04 95.4 °F 40.4 °F 29.81 in NNE 9.2 mph 8.3 mph 15 % 0 in
17:09 95.7 °F 38.9 °F 29.81 in North 15 mph 11.7 mph 14 % 0 in
17:14 95.9 °F 39 °F 29.80 in North 12.7 mph 5.6 mph 14 % 0 in
17:19 96.3 °F 39.4 °F 29.80 in NNW 15 mph 9 mph 14 % 0 in
17:24 96.5 °F 39.5 °F 29.80 in NNW 11.5 mph 7.2 mph 14 % 0 in
17:29 96.3 °F 39.4 °F 29.80 in NNE 10.4 mph 6.4 mph 14 % 0 in
17:34 96.5 °F 39.5 °F 29.80 in North 11.5 mph 7.3 mph 14 % 0 in
17:39 96.7 °F 39.7 °F 29.80 in NW 11 mph 10.4 mph 14 % 0 in
17:44 96.7 °F 39.7 °F 29.80 in North 18.4 mph 8.6 mph 14 % 0 in
17:49 96.2 °F 39.3 °F 29.80 in North 10.4 mph 8 mph 14 % 0 in
17:54 95.8 °F 39 °F 29.79 in North 15 mph 6.8 mph 14 % 0 in
17:59 95.5 °F 38.7 °F 29.79 in NW 10.4 mph 8.8 mph 14 % 0 in
18:04 95.4 °F 38.6 °F 29.79 in NNW 9.2 mph 4.5 mph 14 % 0 in
18:09 95.9 °F 39 °F 29.79 in NNW 10.4 mph 7.1 mph 14 % 0 in
18:14 95.8 °F 37.1 °F 29.79 in NW 16.1 mph 7 mph 13 % 0 in
18:19 95.2 °F 38.5 °F 29.79 in NNW 11.5 mph 7.2 mph 14 % 0 in
18:24 94.9 °F 38.3 °F 29.79 in NNW 16.1 mph 12.2 mph 14 % 0 in
18:29 94.6 °F 38 °F 29.79 in NW 10.4 mph 5.7 mph 14 % 0 in
18:34 94.5 °F 37.9 °F 29.80 in NNW 8.1 mph 6.9 mph 14 % 0 in
18:39 94.5 °F 37.9 °F 29.80 in NNW 6.9 mph 5 mph 14 % 0 in
18:44 94.4 °F 37.9 °F 29.80 in North 11 mph 6.8 mph 14 % 0 in
18:49 94.5 °F 39.7 °F 29.80 in North 6.9 mph 5.2 mph 15 % 0 in
18:54 94.5 °F 37.9 °F 29.80 in North 6.9 mph 3.2 mph 14 % 0 in
18:59 94.5 °F 37.9 °F 29.80 in NW 13 mph 9.3 mph 14 % 0 in
19:04 94.5 °F 37.9 °F 29.80 in NNW 9.2 mph 4 mph 14 % 0 in
19:09 94.4 °F 37.9 °F 29.80 in NNW 6 mph 5.3 mph 14 % 0 in
19:14 94.4 °F 39.6 °F 29.80 in North 10.4 mph 4.5 mph 15 % 0 in
19:19 94.4 °F 39.6 °F 29.80 in North 5 mph 2.8 mph 15 % 0 in
19:24 94.5 °F 37.9 °F 29.80 in North 11.5 mph 5.3 mph 14 % 0 in
19:29 94.4 °F 37.9 °F 29.81 in NNW 11.5 mph 6.5 mph 14 % 0 in
19:34 94.4 °F 39.6 °F 29.81 in NNW 8.1 mph 4.7 mph 15 % 0 in
19:39 94.6 °F 38 °F 29.81 in NNW 6.9 mph 4.7 mph 14 % 0 in
19:44 94.6 °F 39.8 °F 29.81 in North 4.6 mph 3.5 mph 15 % 0 in
19:49 94.5 °F 37.9 °F 29.81 in NNW 8.1 mph 4.5 mph 14 % 0 in
19:54 94.4 °F 37.9 °F 29.81 in North 9 mph 6.2 mph 14 % 0 in
19:59 94.1 °F 37.6 °F 29.81 in NNW 6.9 mph 3.5 mph 14 % 0 in
20:04 93.8 °F 39.2 °F 29.81 in NNW 5 mph 3.6 mph 15 % 0 in
20:09 93.6 °F 39 °F 29.81 in NNW 5 mph 3.5 mph 15 % 0 in
20:14 93.3 °F 38.8 °F 29.81 in NNW 6.9 mph 3.4 mph 15 % 0 in
20:19 92.8 °F 40 °F 29.81 in NNW 3.5 mph 2.4 mph 16 % 0 in
20:24 92.3 °F 39.6 °F 29.81 in NNW 2.3 mph 1.5 mph 16 % 0 in
20:29 91.7 °F 40.7 °F 29.81 in NNW 3.5 mph 1.8 mph 17 % 0 in
20:34 90.9 °F 40.1 °F 29.81 in NNW 3.5 mph 2.5 mph 17 % 0 in
20:39 90.2 °F 42.4 °F 29.81 in NNW 2.3 mph 1 mph 19 % 0 in
20:44 89.1 °F 40.1 °F 29.81 in Calm   0.2 mph 18 % 0 in
20:49 88.3 °F 42.1 °F 29.81 in Calm     20 % 0 in
20:54 86.8 °F 42.2 °F 29.81 in NNW 1 mph   21 % 0 in
20:59 85.4 °F 43.4 °F 29.81 in Calm     23 % 0 in
21:04 84.1 °F 43.4 °F 29.81 in Calm     24 % 0 in
21:09 82.8 °F 45.4 °F 29.81 in NNW 2.3 mph 2 mph 27 % 0 in
21:14 81.7 °F 44.5 °F 29.81 in North 2.3 mph 1.5 mph 27 % 0 in
21:19 81.1 °F 43.9 °F 29.81 in Calm     27 % 0 in
21:24 80.2 °F 45.1 °F 29.81 in NNW 1.2 mph 0.9 mph 29 % 0 in
21:29 79.3 °F 46 °F 29.82 in NNW 2.3 mph 1.3 mph 31 % 0 in
21:34 78.8 °F 45.6 °F 29.82 in Calm     31 % 0 in
21:39 78.4 °F 45.3 °F 29.82 in Calm     31 % 0 in
21:44 78.1 °F 45 °F 29.82 in Calm     31 % 0 in
21:49 77.9 °F 44.8 °F 29.82 in Calm     31 % 0 in
21:54 77.7 °F 45.5 °F 29.82 in Calm     32 % 0 in
21:59 77.3 °F 45.9 °F 29.82 in Calm     33 % 0 in
22:04 76.7 °F 46.2 °F 29.82 in Calm     34 % 0 in
22:09 76.2 °F 45.8 °F 29.82 in Calm     34 % 0 in
22:14 75.8 °F 46.2 °F 29.82 in Calm     35 % 0 in
22:19 75.4 °F 46.6 °F 29.82 in Calm     36 % 0 in
22:24 75.2 °F 47.1 °F 29.82 in Calm     37 % 0 in
22:29 74.9 °F 46.9 °F 29.82 in Calm     37 % 0 in
22:34 74.7 °F 47.4 °F 29.82 in Calm     38 % 0 in
22:39 74.2 °F 47 °F 29.82 in Calm     38 % 0 in
22:44 73.7 °F 47.2 °F 29.82 in Calm     39 % 0 in
22:49 73.2 °F 46.8 °F 29.82 in Calm     39 % 0 in
22:54 72.9 °F 48.5 °F 29.83 in Calm     42 % 0 in
22:59 72.4 °F 48.6 °F 29.83 in NNW 3.5 mph 1.6 mph 43 % 0 in
23:04 71.9 °F 46.9 °F 29.83 in NNW 2.3 mph 1.5 mph 41 % 0 in
23:09 71.7 °F 46.1 °F 29.83 in NNW 1.2 mph 0.1 mph 40 % 0 in
23:14 71.4 °F 45.8 °F 29.83 in Calm     40 % 0 in
23:19 71.3 °F 45.7 °F 29.83 in Calm     40 % 0 in
23:24 71.1 °F 47.5 °F 29.83 in North 2.3 mph 1.3 mph 43 % 0 in
23:29 70.5 °F 46.9 °F 29.83 in NNW 1.2 mph   43 % 0 in
23:34 70.3 °F 46.7 °F 29.83 in Calm     43 % 0 in
23:39 69.9 °F 46.4 °F 29.83 in NNW 2.3 mph 0.7 mph 43 % 0 in
23:44 70.2 °F 46 °F 29.83 in Calm     42 % 0 in
23:49 70.5 °F 46.3 °F 29.83 in Calm     42 % 0 in
23:54 70.6 °F 45.7 °F 29.83 in Calm     41 % 0 in
23:59 70.6 °F 47 °F 29.83 in Calm     43 % 0 in
Ararat Weather
Compliments of Weather Underground - 2.25 mb
Click here to send mail.


ABOUT

Live weather data from Ararat, Victoria, Australia, 3377
Data uploaded from Cumulus every 5 minutes to Weather Underground.
This site then downloads the raw data for formatting and display.
Metric and imperial data can be displayed. Graphs and historical data available.
Includes Sun and Moon times and rain image live from BOM.

Check out Ararat Weather on Facebook, Twitter and Google +

Help support ongoing costs by checking out the ads





Follow @AraratWeather